createdAt,value
2022-12-06T00:03:31.343Z,100.00
2022-12-06T00:08:23.050Z,100.00
2022-12-06T00:13:14.909Z,100.00
2022-12-06T00:18:06.615Z,100.00
2022-12-06T00:22:58.396Z,100.00
2022-12-06T00:27:51.543Z,100.00
2022-12-06T00:32:43.227Z,100.00
2022-12-06T00:37:35.057Z,100.00
2022-12-06T00:42:26.760Z,100.00
2022-12-06T00:47:18.426Z,100.00
2022-12-06T00:52:10.129Z,100.00
2022-12-06T00:57:01.862Z,100.00
2022-12-06T01:01:53.544Z,100.00
2022-12-06T01:06:45.265Z,100.00
2022-12-06T01:11:38.120Z,100.00
2022-12-06T01:16:31.951Z,100.00
2022-12-06T01:21:25.545Z,100.00
2022-12-06T01:26:37.548Z,100.00
2022-12-06T01:31:37.323Z,100.00
2022-12-06T01:36:29.812Z,100.00
2022-12-06T01:41:24.932Z,100.00
2022-12-06T01:46:38.950Z,100.00
2022-12-06T01:51:31.257Z,100.00
2022-12-06T01:56:23.450Z,100.00
2022-12-06T02:01:15.713Z,100.00
2022-12-06T02:06:09.287Z,100.00
2022-12-06T02:11:04.019Z,100.00
2022-12-06T02:16:33.218Z,100.00
2022-12-06T02:21:52.769Z,100.00
2022-12-06T02:27:16.983Z,100.00
2022-12-06T02:32:34.467Z,100.00
2022-12-06T02:37:47.498Z,100.00
2022-12-06T02:42:56.485Z,100.00
2022-12-06T02:47:51.139Z,100.00
2022-12-06T02:52:49.144Z,100.00
2022-12-06T02:57:51.496Z,100.00
2022-12-06T03:02:43.502Z,100.00
2022-12-06T03:07:41.378Z,100.00
2022-12-06T03:12:54.301Z,100.00
2022-12-06T03:18:10.284Z,100.00
2022-12-06T03:23:07.145Z,100.00
2022-12-06T03:28:02.697Z,100.00
2022-12-06T03:32:54.594Z,100.00
2022-12-06T03:37:56.248Z,100.00
2022-12-06T03:42:49.492Z,100.00
2022-12-06T03:48:22.541Z,100.00
2022-12-06T03:53:18.607Z,100.00
2022-12-06T03:58:10.345Z,100.00
2022-12-06T04:03:02.009Z,100.00
2022-12-06T04:07:53.773Z,100.00
2022-12-06T04:13:00.888Z,100.00
2022-12-06T04:18:10.615Z,100.00
2022-12-06T04:23:04.842Z,100.00
2022-12-06T04:28:14.871Z,100.00
2022-12-06T04:33:25.215Z,100.00
2022-12-06T04:38:35.789Z,100.00
2022-12-06T04:43:42.572Z,100.00
2022-12-06T04:48:34.239Z,100.00
2022-12-06T04:53:25.903Z,100.00
2022-12-06T04:58:17.689Z,100.00
2022-12-06T05:03:15.170Z,100.00
2022-12-06T05:08:09.206Z,100.00
2022-12-06T05:13:02.239Z,100.00
2022-12-06T05:17:54.773Z,100.00
2022-12-06T05:22:46.806Z,100.00
2022-12-06T05:27:38.975Z,100.00
2022-12-06T05:32:32.544Z,100.00
2022-12-06T05:37:28.724Z,100.00
2022-12-06T05:47:31.115Z,100.00
2022-12-06T05:52:23.266Z,100.00
2022-12-06T05:57:18.891Z,100.00
2022-12-06T06:02:11.220Z,100.00
2022-12-06T06:07:04.099Z,100.00
2022-12-06T06:11:58.505Z,100.00
2022-12-06T06:16:55.942Z,100.00
2022-12-06T06:21:51.341Z,100.00
2022-12-06T06:26:43.361Z,100.00
2022-12-06T06:36:46.140Z,100.00
2022-12-06T07:02:04.216Z,100.00
2022-12-06T07:06:56.960Z,100.00
2022-12-06T07:11:48.965Z,100.00
2022-12-06T07:16:41.659Z,100.00
2022-12-06T07:21:33.892Z,100.00
2022-12-06T07:26:33.813Z,100.00
2022-12-06T07:31:29.628Z,100.00
2022-12-06T07:36:32.104Z,100.00
2022-12-06T07:41:50.104Z,100.00
2022-12-06T07:51:52.541Z,100.00
2022-12-06T07:56:44.635Z,100.00
2022-12-06T08:06:44.081Z,100.00
2022-12-06T08:11:36.987Z,100.00
2022-12-06T08:21:35.685Z,100.00
2022-12-06T08:26:28.645Z,100.00
2022-12-06T08:31:24.642Z,100.00
2022-12-06T08:36:21.781Z,100.00
2022-12-06T08:41:33.480Z,100.00
2022-12-06T08:51:39.553Z,100.00
2022-12-06T08:56:33.087Z,100.00
2022-12-06T09:11:56.466Z,100.00
2022-12-06T09:27:01.380Z,100.00
2022-12-06T09:31:57.863Z,100.00
2022-12-06T09:36:59.737Z,100.00
2022-12-06T09:59:09.596Z,100.00
2022-12-06T10:04:30.981Z,100.00
2022-12-06T10:09:57.783Z,100.00
2022-12-06T10:20:51.245Z,100.00
2022-12-06T10:26:05.338Z,100.00
2022-12-06T10:31:26.372Z,100.00
2022-12-06T10:36:44.417Z,100.00
2022-12-06T10:41:54.219Z,100.00
2022-12-06T10:47:06.833Z,100.00
2022-12-06T10:53:05.501Z,98.49
2022-12-06T10:58:28.567Z,99.40
2022-12-06T11:09:06.817Z,99.28
2022-12-06T11:14:23.849Z,98.79
2022-12-06T11:19:48.047Z,98.76
2022-12-06T11:25:08.658Z,98.39
2022-12-06T12:01:53.093Z,97.24
2022-12-06T12:17:23.200Z,95.79
2022-12-06T12:22:36.720Z,93.26
2022-12-06T12:33:21.331Z,94.00
2022-12-06T12:38:27.361Z,94.15
2022-12-06T12:43:38.132Z,93.26
2022-12-06T12:48:38.160Z,92.59
2022-12-06T12:53:52.708Z,92.31
2022-12-06T13:26:09.078Z,93.47
2022-12-06T13:41:54.876Z,94.37
2022-12-06T13:46:46.900Z,93.30
2022-12-06T14:02:00.510Z,91.04
2022-12-06T14:50:07.327Z,91.62
2022-12-06T14:55:36.204Z,91.79
2022-12-06T15:06:18.234Z,92.95
2022-12-06T15:11:10.501Z,93.44
2022-12-06T17:35:37.079Z,100.00
2022-12-06T17:50:48.423Z,100.00
2022-12-06T19:28:31.386Z,100.00
2022-12-06T19:54:17.834Z,100.00
2022-12-06T20:04:29.462Z,100.00
2022-12-06T20:09:28.104Z,100.00
2022-12-06T20:19:27.142Z,100.00
2022-12-06T20:24:23.196Z,100.00
2022-12-06T20:29:17.815Z,100.00
2022-12-06T20:49:43.474Z,100.00
2022-12-06T20:54:43.984Z,100.00
2022-12-06T21:20:03.808Z,100.00
2022-12-06T21:25:00.013Z,100.00
2022-12-06T21:29:56.004Z,100.00
2022-12-06T21:34:48.229Z,100.00
2022-12-06T21:39:42.225Z,100.00
2022-12-06T21:44:36.104Z,100.00
2022-12-06T21:54:51.520Z,100.00
2022-12-06T21:59:43.604Z,100.00
2022-12-06T22:04:40.650Z,100.00
2022-12-06T22:14:41.388Z,100.00
2022-12-06T22:19:33.771Z,100.00
2022-12-06T22:24:26.696Z,100.00
2022-12-06T22:29:19.623Z,100.00
2022-12-06T22:34:12.896Z,100.00
2022-12-06T22:39:14.866Z,100.00
2022-12-06T22:49:21.372Z,100.00
2022-12-06T22:54:15.305Z,100.00
2022-12-06T23:04:15.489Z,100.00
2022-12-06T23:09:10.203Z,100.00
2022-12-06T23:14:04.352Z,100.00
2022-12-06T23:19:03.043Z,100.00
2022-12-06T23:24:04.100Z,100.00
2022-12-06T23:28:56.873Z,100.00
2022-12-06T23:33:54.534Z,100.00
2022-12-06T23:38:47.733Z,100.00
2022-12-06T23:43:41.465Z,100.00
2022-12-06T23:48:34.407Z,100.00
2022-12-06T23:53:27.823Z,100.00
2022-12-06T23:58:23.667Z,100.00
